Time;durP1;ratioP1;P1;durP2;ratioP2;P2;SDS_P1;SDS_P2;PMS_P1;PMS_P2;Temp;Humidity;BMP_temperature;BMP_pressure;BME280_temperature;BME280_humidity;BME280_pressure;Samples;Min_cycle;Max_cycle;Signal;HPM_P1;HPM_P2
2021/04/29 00:00:22;;;;;;;;;;;19.50;55.80;;;;;;5073985;28;1413;-65
2021/04/29 00:02:47;;;;;;;;;;;19.50;55.80;;;;;;5071126;28;1813;-66
2021/04/29 00:05:13;;;;;;;;;;;19.50;56.50;;;;;;5068539;28;1506;-65
2021/04/29 00:07:39;;;;;;;;;;;19.50;55.90;;;;;;5055482;28;1483;-65
2021/04/29 00:10:05;;;;;;;;;;;19.40;55.80;;;;;;5055272;28;863;-65
2021/04/29 00:12:30;;;;;;;;;;;19.40;55.90;;;;;;5073036;28;1026;-65
2021/04/29 00:14:56;;;;;;;;;;;19.40;55.90;;;;;;5072609;28;887;-66
2021/04/29 00:17:21;;;;;;;;;;;19.40;55.90;;;;;;5072816;28;1957;-66
2021/04/29 00:19:47;;;;;;;;;;;19.40;56.00;;;;;;5068220;28;1375;-65
2021/04/29 00:22:12;;;;;;;;;;;19.40;56.00;;;;;;5072933;28;1303;-65
2021/04/29 00:24:38;;;;;;;;;;;19.40;56.00;;;;;;5072678;28;1331;-65
2021/04/29 00:27:03;;;;;;;;;;;19.40;56.00;;;;;;5072558;28;1290;-65
2021/04/29 00:29:28;;;;;;;;;;;19.40;56.10;;;;;;5073054;28;764;-65
2021/04/29 00:31:54;;;;;;;;;;;19.40;56.10;;;;;;5072772;28;803;-66
2021/04/29 00:34:19;;;;;;;;;;;19.40;56.10;;;;;;5072727;28;1198;-66
2021/04/29 00:36:45;;;;;;;;;;;19.40;56.10;;;;;;5072146;28;1228;-66
2021/04/29 00:39:10;;;;;;;;;;;19.40;56.20;;;;;;5072419;28;1898;-65
2021/04/29 00:41:35;;;;;;;;;;;19.40;56.20;;;;;;5072522;28;957;-66
2021/04/29 00:44:01;;;;;;;;;;;19.40;56.20;;;;;;5072567;28;1170;-65
2021/04/29 00:46:27;;;;;;;;;;;19.40;56.20;;;;;;5071486;28;1183;-66
2021/04/29 00:48:53;;;;;;;;;;;19.40;56.20;;;;;;5072132;28;1052;-66
2021/04/29 00:51:20;;;;;;;;;;;19.40;56.20;;;;;;5054018;28;1473;-65
2021/04/29 00:53:46;;;;;;;;;;;19.40;56.30;;;;;;5072438;28;1094;-66
2021/04/29 00:56:12;;;;;;;;;;;19.40;56.30;;;;;;5068515;28;2147;-65
2021/04/29 00:58:38;;;;;;;;;;;19.30;56.30;;;;;;5065583;28;2211;-65
2021/04/29 01:01:03;;;;;;;;;;;19.30;56.30;;;;;;5053801;28;1636;-66
2021/04/29 01:03:33;;;;;;;;;;;19.40;56.40;;;;;;5050451;28;2003;-67
2021/04/29 01:06:01;;;;;;;;;;;19.30;56.30;;;;;;5052660;28;1397;-66
2021/04/29 01:08:26;;;;;;;;;;;19.30;56.40;;;;;;5053300;28;1137;-66
2021/04/29 01:11:12;;;;;;;;;;;19.30;56.40;;;;;;5071180;28;1124;-66
2021/04/29 01:13:37;;;;;;;;;;;19.30;56.40;;;;;;5070870;28;1268;-66
2021/04/29 01:16:03;;;;;;;;;;;19.30;56.40;;;;;;5053642;28;1429;-66
2021/04/29 01:18:28;;;;;;;;;;;19.30;56.40;;;;;;5053844;28;1894;-66
2021/04/29 01:20:59;;;;;;;;;;;19.30;56.40;;;;;;5071832;28;1295;-66
2021/04/29 01:23:40;;;;;;;;;;;19.30;56.40;;;;;;5054441;28;1146;-67
2021/04/29 01:26:16;;;;;;;;;;;19.30;56.40;;;;;;5068876;28;1278;-66
2021/04/29 01:28:45;;;;;;;;;;;19.30;56.50;;;;;;5071449;28;1287;-66
2021/04/29 01:31:11;;;;;;;;;;;19.30;56.50;;;;;;5054425;28;1204;-65
2021/04/29 01:33:37;;;;;;;;;;;19.30;56.50;;;;;;5053142;28;1662;-66
2021/04/29 01:36:02;;;;;;;;;;;19.30;56.50;;;;;;5070598;28;1361;-66
2021/04/29 01:38:28;;;;;;;;;;;19.30;56.50;;;;;;5054222;28;1898;-66
2021/04/29 01:40:53;;;;;;;;;;;19.30;56.50;;;;;;5072786;28;1659;-66
2021/04/29 01:43:19;;;;;;;;;;;19.30;56.50;;;;;;5054865;28;1321;-66
2021/04/29 01:45:44;;;;;;;;;;;19.30;56.50;;;;;;5054554;28;1554;-66
2021/04/29 01:48:10;;;;;;;;;;;19.30;56.60;;;;;;5072561;28;1661;-66
2021/04/29 01:50:36;;;;;;;;;;;19.30;56.60;;;;;;5054636;28;1363;-66
2021/04/29 01:53:01;;;;;;;;;;;19.20;56.60;;;;;;5054767;28;1166;-66
2021/04/29 01:55:27;;;;;;;;;;;19.20;56.50;;;;;;5053875;28;1629;-66
2021/04/29 01:57:52;;;;;;;;;;;19.30;56.60;;;;;;5054179;28;1975;-66
2021/04/29 02:00:18;;;;;;;;;;;19.20;57.20;;;;;;5075182;28;790;-66
2021/04/29 02:02:44;;;;;;;;;;;19.30;56.70;;;;;;5058663;28;1750;-66
2021/04/29 02:05:09;;;;;;;;;;;19.20;56.60;;;;;;5075938;28;1177;-67
2021/04/29 02:07:35;;;;;;;;;;;19.30;56.70;;;;;;5075920;28;1283;-66
2021/04/29 02:10:00;;;;;;;;;;;19.20;56.60;;;;;;5058499;28;1389;-66
2021/04/29 02:12:26;;;;;;;;;;;19.30;56.70;;;;;;5076267;28;1224;-66
2021/04/29 02:14:52;;;;;;;;;;;19.30;56.70;;;;;;5058359;28;1435;-66
2021/04/29 02:17:19;;;;;;;;;;;19.20;56.60;;;;;;5057299;28;1913;-66
2021/04/29 02:19:44;;;;;;;;;;;19.20;56.60;;;;;;5058132;28;1258;-66
2021/04/29 02:22:11;;;;;;;;;;;19.20;56.60;;;;;;5076058;28;1430;-66
2021/04/29 02:24:36;;;;;;;;;;;19.20;56.70;;;;;;5075947;28;1583;-66
2021/04/29 02:27:02;;;;;;;;;;;19.20;56.70;;;;;;5057111;28;1522;-66
2021/04/29 02:29:27;;;;;;;;;;;19.20;56.70;;;;;;5075750;28;1148;-66
2021/04/29 02:31:52;;;;;;;;;;;19.20;56.70;;;;;;5075846;28;1656;-66
2021/04/29 02:34:19;;;;;;;;;;;19.20;56.70;;;;;;5075848;28;1612;-66
2021/04/29 02:36:44;;;;;;;;;;;19.20;56.70;;;;;;5075414;28;1286;-66
2021/04/29 02:39:10;;;;;;;;;;;19.20;56.70;;;;;;5058014;28;1993;-66
2021/04/29 02:41:35;;;;;;;;;;;19.20;56.70;;;;;;5075598;28;1035;-66
2021/04/29 02:44:01;;;;;;;;;;;19.20;56.70;;;;;;5076024;28;739;-66
2021/04/29 02:46:26;;;;;;;;;;;19.20;56.70;;;;;;5057500;28;1288;-66
2021/04/29 02:48:52;;;;;;;;;;;19.20;56.80;;;;;;5075731;28;930;-66
2021/04/29 02:51:17;;;;;;;;;;;19.20;56.80;;;;;;5057449;28;1464;-66
2021/04/29 02:53:43;;;;;;;;;;;19.20;56.80;;;;;;5075729;28;1576;-66
2021/04/29 02:56:08;;;;;;;;;;;19.20;56.80;;;;;;5057361;28;1344;-67
2021/04/29 02:58:43;;;;;;;;;;;19.20;56.80;;;;;;5057440;28;1906;-67
2021/04/29 03:01:09;;;;;;;;;;;19.20;56.80;;;;;;5057099;28;1630;-66
2021/04/29 03:03:35;;;;;;;;;;;19.20;56.80;;;;;;5074734;28;1586;-66
2021/04/29 03:06:00;;;;;;;;;;;19.20;56.80;;;;;;5073901;28;1840;-68
2021/04/29 03:08:26;;;;;;;;;;;19.20;56.90;;;;;;5074925;28;1646;-68
2021/04/29 03:10:51;;;;;;;;;;;19.20;56.80;;;;;;5056719;28;1636;-67
2021/04/29 03:13:16;;;;;;;;;;;19.20;56.90;;;;;;5074922;28;1355;-68
2021/04/29 03:15:42;;;;;;;;;;;19.10;56.80;;;;;;5073786;28;1601;-68
2021/04/29 03:18:07;;;;;;;;;;;19.20;56.90;;;;;;5074965;28;1959;-68
2021/04/29 03:20:33;;;;;;;;;;;19.20;56.90;;;;;;5074861;28;1630;-68
2021/04/29 03:22:58;;;;;;;;;;;19.10;56.80;;;;;;5074733;28;1652;-68
2021/04/29 03:25:24;;;;;;;;;;;19.20;56.90;;;;;;5073814;28;1426;-67
2021/04/29 03:27:49;;;;;;;;;;;19.10;56.90;;;;;;5074537;28;1655;-67
2021/04/29 03:30:15;;;;;;;;;;;19.10;56.90;;;;;;5074477;28;1374;-68
2021/04/29 03:32:40;;;;;;;;;;;19.10;56.90;;;;;;5074353;28;1324;-67
2021/04/29 03:35:06;;;;;;;;;;;19.10;56.90;;;;;;5074101;28;1303;-68
2021/04/29 03:37:33;;;;;;;;;;;19.10;56.90;;;;;;5056716;28;1976;-68
2021/04/29 03:39:58;;;;;;;;;;;19.20;56.90;;;;;;5056598;28;1713;-68
2021/04/29 03:42:24;;;;;;;;;;;19.20;56.70;;;;;;5074015;28;1428;-68
2021/04/29 03:44:49;;;;;;;;;;;19.20;56.70;;;;;;5074752;28;1392;-67
2021/04/29 03:47:14;;;;;;;;;;;19.20;56.60;;;;;;5073695;28;1683;-67
2021/04/29 03:49:40;;;;;;;;;;;19.30;56.60;;;;;;5073838;28;1384;-67
2021/04/29 03:52:05;;;;;;;;;;;19.30;56.40;;;;;;5074336;28;1355;-66
2021/04/29 03:54:31;;;;;;;;;;;19.40;56.30;;;;;;5074025;28;1609;-67
2021/04/29 03:56:56;;;;;;;;;;;19.50;56.20;;;;;;5073218;28;1342;-67
2021/04/29 03:59:23;;;;;;;;;;;19.60;56.00;;;;;;5073582;28;1897;-67
2021/04/29 04:01:48;;;;;;;;;;;19.70;55.80;;;;;;5074359;28;1669;-67
2021/04/29 04:04:14;;;;;;;;;;;19.80;55.60;;;;;;5055858;28;1385;-66
2021/04/29 04:06:39;;;;;;;;;;;19.90;55.40;;;;;;5073684;28;1350;-67
2021/04/29 04:09:04;;;;;;;;;;;20.00;55.30;;;;;;5073850;28;1417;-67
2021/04/29 04:11:30;;;;;;;;;;;20.10;55.10;;;;;;5073771;28;1130;-66
2021/04/29 04:13:57;;;;;;;;;;;20.10;55.00;;;;;;5073468;28;1720;-66
2021/04/29 04:16:23;;;;;;;;;;;20.20;54.80;;;;;;5072896;28;1315;-66
2021/04/29 04:18:48;;;;;;;;;;;20.20;54.60;;;;;;5073465;28;1977;-67
2021/04/29 04:21:13;;;;;;;;;;;20.30;54.50;;;;;;5055626;28;1322;-68
2021/04/29 04:23:39;;;;;;;;;;;20.30;54.30;;;;;;5073107;28;1498;-67
2021/04/29 04:26:04;;;;;;;;;;;20.40;54.40;;;;;;5072677;28;1638;-67
2021/04/29 04:28:30;;;;;;;;;;;20.40;54.30;;;;;;5072846;28;1718;-68
2021/04/29 04:30:55;;;;;;;;;;;20.40;54.20;;;;;;5073663;28;1347;-67
2021/04/29 04:33:20;;;;;;;;;;;20.50;54.10;;;;;;5055277;28;1394;-67
2021/04/29 04:35:46;;;;;;;;;;;20.50;54.00;;;;;;5072416;28;1653;-67
2021/04/29 04:38:11;;;;;;;;;;;20.60;54.00;;;;;;5073176;28;1963;-67
2021/04/29 04:40:37;;;;;;;;;;;20.60;53.90;;;;;;5073275;28;1181;-67
2021/04/29 04:43:02;;;;;;;;;;;20.60;53.90;;;;;;5055532;28;1416;-67
2021/04/29 04:45:28;;;;;;;;;;;20.70;53.80;;;;;;5072183;28;1754;-67
2021/04/29 04:47:53;;;;;;;;;;;20.70;53.80;;;;;;5072657;28;1276;-66
2021/04/29 04:50:19;;;;;;;;;;;20.70;53.70;;;;;;5072928;28;1680;-67
2021/04/29 04:52:44;;;;;;;;;;;20.70;53.70;;;;;;5073092;28;1368;-67
2021/04/29 04:55:10;;;;;;;;;;;20.80;53.70;;;;;;5072497;28;1157;-67
2021/04/29 04:57:35;;;;;;;;;;;20.80;53.60;;;;;;5072483;28;1909;-67
2021/04/29 05:00:01;;;;;;;;;;;20.80;53.60;;;;;;5073179;28;1209;-67
2021/04/29 05:02:26;;;;;;;;;;;20.80;53.50;;;;;;5073044;28;1333;-67
2021/04/29 05:04:51;;;;;;;;;;;20.80;53.50;;;;;;5072953;28;1553;-66
2021/04/29 05:07:17;;;;;;;;;;;20.90;53.50;;;;;;5071728;28;1672;-66
2021/04/29 05:09:43;;;;;;;;;;;20.90;53.50;;;;;;5072441;28;1134;-65
2021/04/29 05:12:09;;;;;;;;;;;20.90;53.50;;;;;;5073013;28;1613;-65
2021/04/29 05:14:35;;;;;;;;;;;20.90;53.40;;;;;;5054898;28;1459;-65
2021/04/29 05:17:00;;;;;;;;;;;20.90;53.40;;;;;;5071796;28;1460;-66
2021/04/29 05:19:26;;;;;;;;;;;21.00;53.40;;;;;;5054482;28;1902;-65
2021/04/29 05:21:51;;;;;;;;;;;21.00;53.40;;;;;;5072688;28;1583;-65
2021/04/29 05:24:16;;;;;;;;;;;21.00;53.30;;;;;;5073109;28;1638;-65
2021/04/29 05:26:42;;;;;;;;;;;21.00;53.30;;;;;;5072349;28;1552;-65
2021/04/29 05:29:08;;;;;;;;;;;21.00;53.30;;;;;;5072504;28;1202;-66
2021/04/29 05:31:34;;;;;;;;;;;21.00;53.30;;;;;;5071986;28;1304;-66
2021/04/29 05:33:59;;;;;;;;;;;21.00;53.30;;;;;;5054330;28;1581;-66
2021/04/29 05:36:24;;;;;;;;;;;21.00;53.30;;;;;;5071681;28;1276;-67
2021/04/29 05:38:50;;;;;;;;;;;21.00;53.40;;;;;;5054330;28;1951;-66
2021/04/29 05:41:16;;;;;;;;;;;21.00;53.30;;;;;;5072298;28;1390;-66
2021/04/29 05:43:41;;;;;;;;;;;21.00;53.40;;;;;;5072314;28;1373;-65
2021/04/29 05:46:07;;;;;;;;;;;21.00;53.40;;;;;;5072225;28;1593;-66
2021/04/29 05:48:33;;;;;;;;;;;21.00;53.40;;;;;;5072537;28;1334;-64
2021/04/29 05:50:58;;;;;;;;;;;21.00;53.50;;;;;;5072170;28;1626;-68
2021/04/29 05:53:24;;;;;;;;;;;21.00;53.50;;;;;;5072236;28;1274;-67
2021/04/29 05:55:49;;;;;;;;;;;21.00;53.50;;;;;;5071379;28;1502;-67
2021/04/29 05:58:15;;;;;;;;;;;20.90;53.50;;;;;;5107561;22;3507;-69
2021/04/29 06:00:40;;;;;;;;;;;20.90;53.60;;;;;;5092474;28;1161;-69
2021/04/29 06:03:06;;;;;;;;;;;20.90;53.60;;;;;;5092589;28;1354;-68
2021/04/29 06:05:31;;;;;;;;;;;20.90;53.70;;;;;;5072052;28;1358;-69
2021/04/29 06:08:00;;;;;;;;;;;20.90;53.70;;;;;;5067516;28;1857;-71
2021/04/29 06:10:25;;;;;;;;;;;20.90;53.70;;;;;;5070880;28;1474;-70
2021/04/29 06:12:51;;;;;;;;;;;20.80;53.80;;;;;;5081453;28;1613;-68
2021/04/29 06:15:16;;;;;;;;;;;20.80;53.80;;;;;;5067655;28;1566;-68
2021/04/29 06:17:42;;;;;;;;;;;20.80;53.90;;;;;;5090528;28;1959;-69
2021/04/29 06:20:08;;;;;;;;;;;20.80;53.90;;;;;;5085684;28;1568;-69
2021/04/29 06:22:33;;;;;;;;;;;20.80;54.00;;;;;;5087865;28;1334;-71
2021/04/29 06:24:58;;;;;;;;;;;20.80;54.00;;;;;;5069786;28;1730;-68
2021/04/29 06:27:24;;;;;;;;;;;20.70;54.00;;;;;;5090518;28;1434;-70
2021/04/29 06:29:49;;;;;;;;;;;20.80;54.10;;;;;;5091031;28;1341;-70
2021/04/29 06:32:15;;;;;;;;;;;20.80;54.10;;;;;;5082111;28;2256;-69
2021/04/29 06:34:42;;;;;;;;;;;20.70;54.10;;;;;;5071302;28;1805;-69
2021/04/29 06:37:07;;;;;;;;;;;20.70;54.20;;;;;;5062927;28;1669;-68
2021/04/29 06:39:32;;;;;;;;;;;20.70;54.20;;;;;;5072917;28;1981;-68
2021/04/29 06:41:58;;;;;;;;;;;20.70;54.30;;;;;;5091239;28;1289;-68
2021/04/29 06:44:23;;;;;;;;;;;20.70;54.90;;;;;;5089709;28;1640;-67
2021/04/29 06:46:49;;;;;;;;;;;20.70;54.30;;;;;;5094836;28;1794;-70
2021/04/29 06:49:14;;;;;;;;;;;20.60;54.40;;;;;;5094550;28;1634;-71
2021/04/29 06:51:40;;;;;;;;;;;20.60;54.40;;;;;;5076520;28;1606;-72
2021/04/29 06:54:06;;;;;;;;;;;20.60;54.40;;;;;;5095656;28;1427;-71
2021/04/29 06:56:32;;;;;;;;;;;20.60;54.50;;;;;;5076809;28;1353;-72
2021/04/29 06:58:57;;;;;;;;;;;20.60;54.50;;;;;;5094845;28;1906;-71
2021/04/29 07:01:23;;;;;;;;;;;20.60;54.50;;;;;;5095517;28;1374;-69
2021/04/29 07:03:48;;;;;;;;;;;20.60;54.50;;;;;;5076891;28;1378;-70
2021/04/29 07:06:13;;;;;;;;;;;20.50;54.50;;;;;;5094696;28;1643;-70
2021/04/29 07:08:39;;;;;;;;;;;20.50;54.50;;;;;;5095520;28;1709;-69
2021/04/29 07:11:04;;;;;;;;;;;20.50;54.60;;;;;;5076844;28;1630;-69
2021/04/29 07:13:30;;;;;;;;;;;20.50;54.60;;;;;;5077712;28;819;-72
2021/04/29 07:15:56;;;;;;;;;;;20.50;54.70;;;;;;5076310;28;1476;-71
2021/04/29 07:18:21;;;;;;;;;;;20.50;54.70;;;;;;5094866;28;1957;-71
2021/04/29 07:20:47;;;;;;;;;;;20.50;54.70;;;;;;5090455;28;1529;-70
2021/04/29 07:23:12;;;;;;;;;;;20.50;54.70;;;;;;5095360;28;1207;-72
2021/04/29 07:25:38;;;;;;;;;;;20.50;54.80;;;;;;5094568;28;1605;-69
2021/04/29 07:28:04;;;;;;;;;;;20.50;54.80;;;;;;5076764;28;1768;-69
2021/04/29 07:30:29;;;;;;;;;;;20.40;54.80;;;;;;5095019;28;1614;-70
2021/04/29 07:32:55;;;;;;;;;;;20.40;54.90;;;;;;5095326;28;1253;-71
2021/04/29 07:35:23;;;;;;;;;;;20.40;54.90;;;;;;5094687;28;1398;-71
2021/04/29 07:37:49;;;;;;;;;;;20.40;54.90;;;;;;5094482;28;1951;-71
2021/04/29 07:40:15;;;;;;;;;;;20.40;55.00;;;;;;5076868;28;1476;-70
2021/04/29 07:42:40;;;;;;;;;;;20.40;55.00;;;;;;5094803;28;1631;-70
2021/04/29 07:45:06;;;;;;;;;;;20.40;55.00;;;;;;5094087;28;1027;-69
2021/04/29 07:47:31;;;;;;;;;;;20.40;55.10;;;;;;5094352;28;1369;-71
2021/04/29 07:49:57;;;;;;;;;;;20.40;55.10;;;;;;5068342;28;1418;-71
2021/04/29 07:52:22;;;;;;;;;;;20.30;55.10;;;;;;5089537;28;1459;-71
2021/04/29 07:54:48;;;;;;;;;;;20.30;55.10;;;;;;5076579;28;786;-71
2021/04/29 07:57:13;;;;;;;;;;;20.30;55.10;;;;;;5093745;28;1236;-73
2021/04/29 07:59:38;;;;;;;;;;;20.30;55.20;;;;;;5076391;28;2376;-71
2021/04/29 08:02:04;;;;;;;;;;;20.30;55.20;;;;;;5094401;28;756;-70
2021/04/29 08:04:29;;;;;;;;;;;20.30;55.20;;;;;;5094667;28;917;-70
2021/04/29 08:06:55;;;;;;;;;;;20.30;55.20;;;;;;5092987;28;1409;-69
2021/04/29 08:09:21;;;;;;;;;;;20.30;55.30;;;;;;5076091;28;1388;-71
2021/04/29 08:11:46;;;;;;;;;;;20.30;55.30;;;;;;5094586;28;987;-69
2021/04/29 08:14:12;;;;;;;;;;;20.30;55.30;;;;;;5059581;28;1568;-70
2021/04/29 08:16:37;;;;;;;;;;;20.20;55.30;;;;;;5093098;28;1510;-71
2021/04/29 08:19:03;;;;;;;;;;;20.30;55.30;;;;;;5075795;28;1960;-69
2021/04/29 08:21:28;;;;;;;;;;;20.20;55.30;;;;;;5089312;28;1703;-69
2021/04/29 08:23:55;;;;;;;;;;;20.20;55.30;;;;;;5076154;28;1466;-69
2021/04/29 08:26:20;;;;;;;;;;;20.20;55.30;;;;;;5059452;28;1672;-69
2021/04/29 08:28:46;;;;;;;;;;;20.20;55.30;;;;;;5093723;28;1337;-69
2021/04/29 08:31:11;;;;;;;;;;;20.20;55.30;;;;;;5094027;28;1177;-69
2021/04/29 08:33:37;;;;;;;;;;;20.20;55.30;;;;;;5094104;28;779;-69
2021/04/29 08:36:02;;;;;;;;;;;20.20;55.30;;;;;;5093508;28;1394;-69
2021/04/29 08:38:27;;;;;;;;;;;20.20;55.40;;;;;;5093902;28;1878;-69
2021/04/29 08:40:53;;;;;;;;;;;20.20;55.40;;;;;;5093604;28;1146;-69
2021/04/29 08:43:19;;;;;;;;;;;20.20;55.40;;;;;;5088041;28;1745;-69
2021/04/29 08:45:45;;;;;;;;;;;20.20;55.40;;;;;;5091909;28;1129;-69
2021/04/29 08:48:11;;;;;;;;;;;20.20;55.40;;;;;;5062727;28;1486;-69
2021/04/29 08:50:37;;;;;;;;;;;20.10;55.40;;;;;;5092307;28;1000;-69
2021/04/29 08:53:02;;;;;;;;;;;20.10;55.40;;;;;;5092380;28;1597;-69
2021/04/29 08:55:28;;;;;;;;;;;20.10;55.40;;;;;;5091635;28;1270;-69
2021/04/29 08:57:53;;;;;;;;;;;20.10;55.40;;;;;;5077828;28;1913;-69
2021/04/29 09:00:20;;;;;;;;;;;20.10;56.10;;;;;;5091717;28;1326;-69
2021/04/29 09:02:46;;;;;;;;;;;20.10;55.50;;;;;;5074213;28;1411;-69
2021/04/29 09:05:18;;;;;;;;;;;20.10;55.50;;;;;;5073343;28;1603;-69
2021/04/29 09:07:52;;;;;;;;;;;20.10;55.50;;;;;;5077905;28;1496;-69
2021/04/29 09:10:24;;;;;;;;;;;20.10;55.50;;;;;;5091679;28;1018;-69
2021/04/29 09:12:49;;;;;;;;;;;20.10;55.50;;;;;;5091710;28;1447;-69
2021/04/29 09:15:22;;;;;;;;;;;20.10;55.60;;;;;;5091375;28;788;-69
2021/04/29 09:17:50;;;;;;;;;;;20.10;55.60;;;;;;5091797;28;1969;-69
2021/04/29 09:20:20;;;;;;;;;;;20.10;55.60;;;;;;5068208;28;1482;-69
2021/04/29 09:22:45;;;;;;;;;;;20.10;55.60;;;;;;5091423;28;1366;-69
2021/04/29 09:25:12;;;;;;;;;;;20.10;55.60;;;;;;5077490;28;3058;-69
2021/04/29 09:27:37;;;;;;;;;;;20.10;55.70;;;;;;5085017;28;1962;-69
2021/04/29 09:30:04;;;;;;;;;;;20.00;55.70;;;;;;5090615;28;1745;-69
2021/04/29 09:32:33;;;;;;;;;;;20.00;55.70;;;;;;5091408;28;1461;-69
2021/04/29 09:34:58;;;;;;;;;;;20.00;55.70;;;;;;5075335;28;1281;-69
2021/04/29 09:37:28;;;;;;;;;;;20.00;55.70;;;;;;5072547;28;1486;-69
2021/04/29 09:39:54;;;;;;;;;;;20.00;55.70;;;;;;5073469;28;1289;-69
2021/04/29 09:42:27;;;;;;;;;;;20.00;55.80;;;;;;5091461;28;1639;-69
2021/04/29 09:44:52;;;;;;;;;;;20.00;55.80;;;;;;5087884;28;1708;-69
2021/04/29 09:47:18;;;;;;;;;;;20.00;55.80;;;;;;5069451;28;1532;-69
2021/04/29 09:49:43;;;;;;;;;;;20.00;55.80;;;;;;5091541;28;1328;-69
2021/04/29 09:52:19;;;;;;;;;;;20.00;55.90;;;;;;5089598;28;2074;-69
2021/04/29 09:54:44;;;;;;;;;;;20.00;55.90;;;;;;5081618;28;1619;-69
2021/04/29 09:57:10;;;;;;;;;;;20.00;55.90;;;;;;5089740;28;1359;-69
2021/04/29 09:59:44;;;;;;;;;;;20.00;55.90;;;;;;5078375;28;1906;-69
2021/04/29 10:02:10;;;;;;;;;;;20.00;55.90;;;;;;5077738;28;1323;-70
2021/04/29 10:04:35;;;;;;;;;;;20.00;55.90;;;;;;5073368;28;1082;-69
2021/04/29 10:07:01;;;;;;;;;;;20.00;55.90;;;;;;5090413;28;1351;-69
2021/04/29 10:09:30;;;;;;;;;;;20.00;56.00;;;;;;5073027;28;961;-70
2021/04/29 10:11:56;;;;;;;;;;;19.90;55.90;;;;;;5090909;28;1368;-69
2021/04/29 10:14:21;;;;;;;;;;;19.90;56.00;;;;;;5073225;28;1563;-69
2021/04/29 10:16:47;;;;;;;;;;;19.90;55.90;;;;;;5059368;28;1345;-70
2021/04/29 10:19:12;;;;;;;;;;;19.90;56.00;;;;;;5072937;28;1909;-69
2021/04/29 10:21:37;;;;;;;;;;;20.00;56.10;;;;;;5071706;28;1478;-69
2021/04/29 10:24:03;;;;;;;;;;;20.00;56.10;;;;;;5077097;28;1318;-69
2021/04/29 10:26:29;;;;;;;;;;;19.90;56.00;;;;;;5094258;28;1574;-69
2021/04/29 10:28:59;;;;;;;;;;;19.90;56.10;;;;;;5095304;28;774;-69
2021/04/29 10:31:25;;;;;;;;;;;19.90;56.10;;;;;;5095032;28;1620;-70
2021/04/29 10:33:51;;;;;;;;;;;19.90;56.10;;;;;;5077009;28;1436;-70
2021/04/29 10:36:17;;;;;;;;;;;19.90;56.10;;;;;;5063794;28;1941;-70
2021/04/29 10:38:43;;;;;;;;;;;19.90;56.10;;;;;;5067933;28;2272;-69
2021/04/29 10:41:18;;;;;;;;;;;19.90;56.10;;;;;;5082915;28;2180;-69
2021/04/29 10:43:44;;;;;;;;;;;19.90;56.10;;;;;;5081842;28;2159;-70
2021/04/29 10:46:09;;;;;;;;;;;19.90;56.10;;;;;;5095099;28;1417;-70
2021/04/29 10:48:36;;;;;;;;;;;19.90;56.10;;;;;;5095272;28;1565;-71
2021/04/29 10:51:06;;;;;;;;;;;19.90;56.80;;;;;;5095417;28;811;-70
2021/04/29 10:53:32;;;;;;;;;;;19.90;56.20;;;;;;5094160;28;861;-70
2021/04/29 10:56:10;;;;;;;;;;;19.90;56.20;;;;;;5094928;28;834;-71
2021/04/29 10:58:36;;;;;;;;;;;19.90;56.20;;;;;;5093812;28;2188;-68
2021/04/29 11:01:12;;;;;;;;;;;19.90;56.20;;;;;;5077534;28;2015;-68
2021/04/29 11:03:39;;;;;;;;;;;19.90;56.20;;;;;;5065076;28;1556;-68
2021/04/29 11:06:09;;;;;;;;;;;19.90;56.20;;;;;;5073350;28;1681;-69
2021/04/29 11:08:35;;;;;;;;;;;19.90;56.20;;;;;;5074492;28;1599;-69
2021/04/29 11:11:01;;;;;;;;;;;19.90;56.20;;;;;;5078679;28;1848;-68
2021/04/29 11:13:27;;;;;;;;;;;19.90;56.20;;;;;;5093947;28;1393;-70
2021/04/29 11:15:56;;;;;;;;;;;19.90;56.20;;;;;;5093368;28;831;-71
2021/04/29 11:18:22;;;;;;;;;;;19.90;56.20;;;;;;5093293;28;1902;-68
2021/04/29 11:20:54;;;;;;;;;;;19.80;56.20;;;;;;5088350;28;1450;-69
2021/04/29 11:23:21;;;;;;;;;;;19.80;56.20;;;;;;5075976;28;804;-69
2021/04/29 11:25:47;;;;;;;;;;;19.90;56.20;;;;;;5093293;28;815;-69
2021/04/29 11:28:12;;;;;;;;;;;19.80;56.20;;;;;;5074785;28;1610;-69
2021/04/29 11:30:39;;;;;;;;;;;19.80;56.20;;;;;;5094056;28;858;-69
2021/04/29 11:33:05;;;;;;;;;;;19.90;56.20;;;;;;5093948;28;1439;-68
2021/04/29 11:35:33;;;;;;;;;;;19.80;56.20;;;;;;5093967;28;779;-69
2021/04/29 11:37:58;;;;;;;;;;;19.90;56.30;;;;;;5093665;28;1927;-69
2021/04/29 11:40:25;;;;;;;;;;;19.80;56.20;;;;;;5075499;28;1372;-68
2021/04/29 11:42:54;;;;;;;;;;;19.80;56.20;;;;;;5045479;28;1359;-69
2021/04/29 11:45:23;;;;;;;;;;;19.80;56.20;;;;;;5083897;28;1264;-69
2021/04/29 11:47:54;;;;;;;;;;;19.90;56.20;;;;;;5086706;28;1939;-69
2021/04/29 11:50:30;;;;;;;;;;;19.80;56.20;;;;;;5082595;28;1627;-69
2021/04/29 11:53:08;;;;;;;;;;;19.80;56.10;;;;;;5071409;28;1427;-69
2021/04/29 11:55:34;;;;;;;;;;;19.80;56.10;;;;;;5072411;28;1567;-69
2021/04/29 11:58:03;;;;;;;;;;;19.90;56.10;;;;;;5109707;22;2617;-65
2021/04/29 12:00:33;;;;;;;;;;;19.90;56.00;;;;;;5069960;28;1385;-65
2021/04/29 12:02:58;;;;;;;;;;;20.00;56.00;;;;;;5075210;28;1667;-65
2021/04/29 12:05:50;;;;;;;;;;;20.10;55.90;;;;;;5092068;28;1615;-65
2021/04/29 12:08:20;;;;;;;;;;;20.10;55.70;;;;;;5083376;28;1374;-65
2021/04/29 12:10:56;;;;;;;;;;;20.20;55.60;;;;;;5072070;28;1204;-65
2021/04/29 12:13:29;;;;;;;;;;;20.30;55.40;;;;;;5061285;28;1666;-66
2021/04/29 12:15:58;;;;;;;;;;;20.40;55.30;;;;;;5054055;28;1385;-65
2021/04/29 12:18:23;;;;;;;;;;;20.40;55.10;;;;;;5054245;28;1906;-65
2021/04/29 12:20:49;;;;;;;;;;;20.40;55.00;;;;;;5054818;28;1263;-65
2021/04/29 12:23:14;;;;;;;;;;;20.50;54.90;;;;;;5054663;28;1372;-65
2021/04/29 12:25:39;;;;;;;;;;;20.50;54.80;;;;;;5054110;28;1325;-65
2021/04/29 12:28:15;;;;;;;;;;;20.60;54.70;;;;;;5054239;28;1381;-65
2021/04/29 12:30:40;;;;;;;;;;;20.60;54.60;;;;;;5054917;28;1695;-66
2021/04/29 12:33:13;;;;;;;;;;;20.70;54.50;;;;;;5054632;28;1166;-66
2021/04/29 12:35:38;;;;;;;;;;;20.70;54.50;;;;;;5053727;28;1010;-65
2021/04/29 12:38:04;;;;;;;;;;;20.70;54.50;;;;;;5072370;28;1987;-65
2021/04/29 12:40:30;;;;;;;;;;;20.70;54.40;;;;;;5071950;28;1111;-65
2021/04/29 12:43:07;;;;;;;;;;;20.70;54.30;;;;;;5080267;28;1249;-66
2021/04/29 12:45:42;;;;;;;;;;;20.80;54.40;;;;;;5078639;28;1182;-66
2021/04/29 12:48:07;;;;;;;;;;;20.80;54.30;;;;;;5083287;28;1431;-67
2021/04/29 12:50:33;;;;;;;;;;;20.80;54.30;;;;;;5060357;28;1238;-67
2021/04/29 12:52:59;;;;;;;;;;;20.80;54.20;;;;;;5079451;28;1040;-65
2021/04/29 12:55:25;;;;;;;;;;;20.80;54.20;;;;;;5080123;28;1179;-67
2021/04/29 12:57:50;;;;;;;;;;;20.90;54.20;;;;;;5062689;28;1905;-68
2021/04/29 13:00:16;;;;;;;;;;;20.90;54.20;;;;;;5081697;28;1156;-67
2021/04/29 13:02:41;;;;;;;;;;;20.90;54.20;;;;;;5067744;28;1523;-66
2021/04/29 13:05:08;;;;;;;;;;;20.90;54.20;;;;;;5064001;28;1155;-66
2021/04/29 13:07:33;;;;;;;;;;;20.90;54.20;;;;;;5080337;28;1396;-67
2021/04/29 13:09:59;;;;;;;;;;;20.90;54.20;;;;;;5045232;28;1541;-67
2021/04/29 13:12:25;;;;;;;;;;;20.90;54.20;;;;;;5080707;28;1640;-67
2021/04/29 13:15:08;;;;;;;;;;;20.90;54.20;;;;;;5078904;28;1088;-66
2021/04/29 13:17:35;;;;;;;;;;;20.90;54.20;;;;;;5081420;28;1990;-67
2021/04/29 13:20:02;;;;;;;;;;;20.80;54.30;;;;;;5064079;28;1214;-67
2021/04/29 13:22:28;;;;;;;;;;;20.80;54.30;;;;;;5061693;28;1308;-67
2021/04/29 13:24:56;;;;;;;;;;;20.80;54.30;;;;;;5065846;28;1485;-66
2021/04/29 13:27:21;;;;;;;;;;;20.80;54.40;;;;;;5060719;28;1285;-66
2021/04/29 13:29:46;;;;;;;;;;;20.80;54.40;;;;;;5083564;28;1146;-67
2021/04/29 13:32:12;;;;;;;;;;;20.80;54.50;;;;;;5088303;28;1336;-66
2021/04/29 13:34:37;;;;;;;;;;;20.80;54.50;;;;;;5066572;28;1313;-67
2021/04/29 13:37:03;;;;;;;;;;;20.80;54.50;;;;;;5070060;28;1538;-67
2021/04/29 13:39:29;;;;;;;;;;;20.80;54.50;;;;;;5070591;28;1894;-66
2021/04/29 13:41:54;;;;;;;;;;;20.80;54.60;;;;;;5070903;28;1754;-66
2021/04/29 13:44:20;;;;;;;;;;;20.80;55.10;;;;;;5073594;28;1149;-66
2021/04/29 13:46:45;;;;;;;;;;;20.80;54.60;;;;;;5064800;28;932;-66
2021/04/29 13:49:11;;;;;;;;;;;20.80;54.60;;;;;;5068593;28;1374;-67
2021/04/29 13:51:37;;;;;;;;;;;20.80;54.60;;;;;;5082002;28;857;-66
2021/04/29 13:54:02;;;;;;;;;;;20.80;54.60;;;;;;5071145;28;1696;-67
2021/04/29 13:56:28;;;;;;;;;;;20.80;54.60;;;;;;5074839;28;1364;-66
2021/04/29 13:58:53;;;;;;;;;;;20.80;54.60;;;;;;5075265;28;1991;-66
2021/04/29 14:01:20;;;;;;;;;;;20.80;54.60;;;;;;5076052;28;1490;-66
2021/04/29 14:03:46;;;;;;;;;;;20.80;54.60;;;;;;5088417;28;1659;-66
2021/04/29 14:06:11;;;;;;;;;;;20.80;54.60;;;;;;5072960;28;1088;-67
2021/04/29 14:08:37;;;;;;;;;;;20.80;54.60;;;;;;5073917;28;1327;-67
2021/04/29 14:11:03;;;;;;;;;;;20.80;54.60;;;;;;5074352;28;1412;-67
2021/04/29 14:13:28;;;;;;;;;;;20.80;54.60;;;;;;5065517;28;1577;-66
2021/04/29 14:15:54;;;;;;;;;;;20.80;54.60;;;;;;5074238;28;1370;-66
2021/04/29 14:18:20;;;;;;;;;;;20.80;54.60;;;;;;5073637;28;1902;-66
2021/04/29 14:20:46;;;;;;;;;;;20.80;54.60;;;;;;5074609;28;1460;-67
2021/04/29 14:23:12;;;;;;;;;;;20.70;54.60;;;;;;5074903;28;1368;-67
2021/04/29 14:25:37;;;;;;;;;;;20.80;54.70;;;;;;5073928;28;1638;-67